sensor_id;sensor_type;location;lat;lon;timestamp;P1;durP1;ratioP1;P2;durP2;ratioP2
6442;SDS011;3254;47.372;8.512;2024-01-30T00:01:50;33.57;;;19.83;;
6442;SDS011;3254;47.372;8.512;2024-01-30T00:04:16;37.57;;;20.70;;
6442;SDS011;3254;47.372;8.512;2024-01-30T00:06:42;36.27;;;20.63;;
6442;SDS011;3254;47.372;8.512;2024-01-30T00:09:11;37.78;;;20.10;;
6442;SDS011;3254;47.372;8.512;2024-01-30T00:11:37;34.17;;;19.48;;
6442;SDS011;3254;47.372;8.512;2024-01-30T00:14:04;33.80;;;18.45;;
6442;SDS011;3254;47.372;8.512;2024-01-30T00:16:31;31.73;;;17.67;;
6442;SDS011;3254;47.372;8.512;2024-01-30T00:18:57;33.50;;;18.65;;
6442;SDS011;3254;47.372;8.512;2024-01-30T00:21:23;29.23;;;18.40;;
6442;SDS011;3254;47.372;8.512;2024-01-30T00:23:50;33.50;;;17.47;;
6442;SDS011;3254;47.372;8.512;2024-01-30T00:26:16;34.28;;;18.50;;
6442;SDS011;3254;47.372;8.512;2024-01-30T00:28:41;47.77;;;21.47;;
6442;SDS011;3254;47.372;8.512;2024-01-30T00:31:07;29.60;;;18.43;;
6442;SDS011;3254;47.372;8.512;2024-01-30T00:33:34;32.00;;;18.48;;
6442;SDS011;3254;47.372;8.512;2024-01-30T00:35:59;34.20;;;19.63;;
6442;SDS011;3254;47.372;8.512;2024-01-30T00:38:25;37.17;;;20.17;;
6442;SDS011;3254;47.372;8.512;2024-01-30T00:40:50;34.27;;;18.73;;
6442;SDS011;3254;47.372;8.512;2024-01-30T00:43:16;32.85;;;18.15;;
6442;SDS011;3254;47.372;8.512;2024-01-30T00:45:45;32.87;;;18.10;;
6442;SDS011;3254;47.372;8.512;2024-01-30T00:48:11;30.80;;;18.38;;
6442;SDS011;3254;47.372;8.512;2024-01-30T00:50:37;33.08;;;18.77;;
6442;SDS011;3254;47.372;8.512;2024-01-30T00:53:03;34.00;;;17.20;;
6442;SDS011;3254;47.372;8.512;2024-01-30T00:55:30;34.43;;;17.80;;
6442;SDS011;3254;47.372;8.512;2024-01-30T00:57:55;35.28;;;19.15;;
6442;SDS011;3254;47.372;8.512;2024-01-30T01:00:21;32.07;;;19.13;;
6442;SDS011;3254;47.372;8.512;2024-01-30T01:02:48;28.85;;;18.55;;
6442;SDS011;3254;47.372;8.512;2024-01-30T01:05:15;35.58;;;20.10;;
6442;SDS011;3254;47.372;8.512;2024-01-30T01:07:41;32.60;;;19.93;;
6442;SDS011;3254;47.372;8.512;2024-01-30T01:10:07;45.03;;;20.75;;
6442;SDS011;3254;47.372;8.512;2024-01-30T01:12:33;38.60;;;20.30;;
6442;SDS011;3254;47.372;8.512;2024-01-30T01:14:59;35.08;;;20.27;;
6442;SDS011;3254;47.372;8.512;2024-01-30T01:17:27;36.90;;;20.27;;
6442;SDS011;3254;47.372;8.512;2024-01-30T01:19:52;38.57;;;20.37;;
6442;SDS011;3254;47.372;8.512;2024-01-30T01:22:19;39.80;;;21.63;;
6442;SDS011;3254;47.372;8.512;2024-01-30T01:24:46;36.33;;;21.73;;
6442;SDS011;3254;47.372;8.512;2024-01-30T01:27:12;44.38;;;21.05;;
6442;SDS011;3254;47.372;8.512;2024-01-30T01:29:37;37.27;;;20.97;;
6442;SDS011;3254;47.372;8.512;2024-01-30T01:32:02;36.13;;;19.93;;
6442;SDS011;3254;47.372;8.512;2024-01-30T01:34:29;31.65;;;18.75;;
6442;SDS011;3254;47.372;8.512;2024-01-30T01:36:55;36.40;;;19.60;;
6442;SDS011;3254;47.372;8.512;2024-01-30T01:39:21;35.20;;;19.33;;
6442;SDS011;3254;47.372;8.512;2024-01-30T01:41:49;41.83;;;21.33;;
6442;SDS011;3254;47.372;8.512;2024-01-30T01:44:14;41.63;;;21.10;;
6442;SDS011;3254;47.372;8.512;2024-01-30T01:46:40;36.43;;;19.03;;
6442;SDS011;3254;47.372;8.512;2024-01-30T01:49:07;40.67;;;21.42;;
6442;SDS011;3254;47.372;8.512;2024-01-30T01:51:35;43.70;;;22.80;;
6442;SDS011;3254;47.372;8.512;2024-01-30T01:54:09;42.63;;;21.15;;
6442;SDS011;3254;47.372;8.512;2024-01-30T01:56:34;38.88;;;21.90;;
6442;SDS011;3254;47.372;8.512;2024-01-30T01:59:07;48.30;;;23.65;;
6442;SDS011;3254;47.372;8.512;2024-01-30T02:01:38;40.53;;;22.08;;
6442;SDS011;3254;47.372;8.512;2024-01-30T02:04:06;43.78;;;21.02;;
6442;SDS011;3254;47.372;8.512;2024-01-30T02:06:32;44.40;;;22.90;;
6442;SDS011;3254;47.372;8.512;2024-01-30T02:08:59;53.00;;;22.15;;
6442;SDS011;3254;47.372;8.512;2024-01-30T02:11:24;43.43;;;23.00;;
6442;SDS011;3254;47.372;8.512;2024-01-30T02:13:50;39.90;;;20.57;;
6442;SDS011;3254;47.372;8.512;2024-01-30T02:16:15;42.27;;;22.20;;
6442;SDS011;3254;47.372;8.512;2024-01-30T02:18:42;46.55;;;22.10;;
6442;SDS011;3254;47.372;8.512;2024-01-30T02:21:10;41.00;;;21.10;;
6442;SDS011;3254;47.372;8.512;2024-01-30T02:23:35;41.13;;;23.27;;
6442;SDS011;3254;47.372;8.512;2024-01-30T02:26:01;38.90;;;21.60;;
6442;SDS011;3254;47.372;8.512;2024-01-30T02:28:29;37.45;;;20.92;;
6442;SDS011;3254;47.372;8.512;2024-01-30T02:30:55;41.90;;;20.97;;
6442;SDS011;3254;47.372;8.512;2024-01-30T02:33:20;43.00;;;22.27;;
6442;SDS011;3254;47.372;8.512;2024-01-30T02:35:47;45.08;;;22.40;;
6442;SDS011;3254;47.372;8.512;2024-01-30T02:38:12;40.50;;;21.80;;
6442;SDS011;3254;47.372;8.512;2024-01-30T02:40:38;46.13;;;22.47;;
6442;SDS011;3254;47.372;8.512;2024-01-30T02:43:03;44.40;;;20.93;;
6442;SDS011;3254;47.372;8.512;2024-01-30T02:45:29;41.17;;;21.87;;
6442;SDS011;3254;47.372;8.512;2024-01-30T02:47:54;50.83;;;24.47;;
6442;SDS011;3254;47.372;8.512;2024-01-30T02:50:20;52.93;;;23.90;;
6442;SDS011;3254;47.372;8.512;2024-01-30T02:52:47;53.63;;;22.38;;
6442;SDS011;3254;47.372;8.512;2024-01-30T02:55:12;41.87;;;22.13;;
6442;SDS011;3254;47.372;8.512;2024-01-30T02:57:38;38.50;;;20.73;;
6442;SDS011;3254;47.372;8.512;2024-01-30T03:00:04;38.70;;;20.90;;
6442;SDS011;3254;47.372;8.512;2024-01-30T03:02:32;41.15;;;19.63;;
6442;SDS011;3254;47.372;8.512;2024-01-30T03:04:59;36.65;;;20.50;;
6442;SDS011;3254;47.372;8.512;2024-01-30T03:07:24;40.20;;;20.10;;
6442;SDS011;3254;47.372;8.512;2024-01-30T03:09:50;39.97;;;20.90;;
6442;SDS011;3254;47.372;8.512;2024-01-30T03:12:15;42.20;;;20.50;;
6442;SDS011;3254;47.372;8.512;2024-01-30T03:14:42;43.90;;;21.50;;
6442;SDS011;3254;47.372;8.512;2024-01-30T03:17:08;40.97;;;20.10;;
6442;SDS011;3254;47.372;8.512;2024-01-30T03:19:33;34.13;;;20.17;;
6442;SDS011;3254;47.372;8.512;2024-01-30T03:21:59;41.80;;;20.90;;
6442;SDS011;3254;47.372;8.512;2024-01-30T03:24:24;36.97;;;19.83;;
6442;SDS011;3254;47.372;8.512;2024-01-30T03:26:49;36.60;;;20.07;;
6442;SDS011;3254;47.372;8.512;2024-01-30T03:29:15;33.00;;;19.00;;
6442;SDS011;3254;47.372;8.512;2024-01-30T03:31:41;42.50;;;19.85;;
6442;SDS011;3254;47.372;8.512;2024-01-30T03:34:07;48.50;;;21.67;;
6442;SDS011;3254;47.372;8.512;2024-01-30T03:36:32;38.90;;;19.70;;
6442;SDS011;3254;47.372;8.512;2024-01-30T03:38:59;37.72;;;20.92;;
6442;SDS011;3254;47.372;8.512;2024-01-30T03:41:25;36.20;;;20.03;;
6442;SDS011;3254;47.372;8.512;2024-01-30T03:43:51;42.58;;;21.88;;
6442;SDS011;3254;47.372;8.512;2024-01-30T03:46:16;45.93;;;24.70;;
6442;SDS011;3254;47.372;8.512;2024-01-30T03:48:42;40.17;;;22.50;;
6442;SDS011;3254;47.372;8.512;2024-01-30T03:51:08;43.83;;;23.60;;
6442;SDS011;3254;47.372;8.512;2024-01-30T03:53:34;38.95;;;21.25;;
6442;SDS011;3254;47.372;8.512;2024-01-30T03:56:00;40.80;;;21.73;;
6442;SDS011;3254;47.372;8.512;2024-01-30T03:58:26;41.40;;;21.20;;
6442;SDS011;3254;47.372;8.512;2024-01-30T04:00:51;38.40;;;20.67;;
6442;SDS011;3254;47.372;8.512;2024-01-30T04:03:16;42.27;;;21.17;;
6442;SDS011;3254;47.372;8.512;2024-01-30T04:05:42;36.20;;;20.60;;
6442;SDS011;3254;47.372;8.512;2024-01-30T04:08:07;38.63;;;20.37;;
6442;SDS011;3254;47.372;8.512;2024-01-30T04:10:33;36.50;;;20.70;;
6442;SDS011;3254;47.372;8.512;2024-01-30T04:12:59;39.10;;;20.20;;
6442;SDS011;3254;47.372;8.512;2024-01-30T04:15:25;40.20;;;21.70;;
6442;SDS011;3254;47.372;8.512;2024-01-30T04:17:51;38.30;;;21.95;;
6442;SDS011;3254;47.372;8.512;2024-01-30T04:20:18;39.67;;;20.95;;
6442;SDS011;3254;47.372;8.512;2024-01-30T04:22:44;46.25;;;21.30;;
6442;SDS011;3254;47.372;8.512;2024-01-30T04:25:09;42.85;;;23.92;;
6442;SDS011;3254;47.372;8.512;2024-01-30T04:27:35;42.47;;;21.87;;
6442;SDS011;3254;47.372;8.512;2024-01-30T04:30:00;33.73;;;19.17;;
6442;SDS011;3254;47.372;8.512;2024-01-30T04:32:26;32.43;;;19.13;;
6442;SDS011;3254;47.372;8.512;2024-01-30T04:34:51;34.80;;;18.87;;
6442;SDS011;3254;47.372;8.512;2024-01-30T04:37:17;35.80;;;19.10;;
6442;SDS011;3254;47.372;8.512;2024-01-30T04:39:42;36.00;;;20.73;;
6442;SDS011;3254;47.372;8.512;2024-01-30T04:42:08;34.50;;;19.83;;
6442;SDS011;3254;47.372;8.512;2024-01-30T04:44:33;34.70;;;20.70;;
6442;SDS011;3254;47.372;8.512;2024-01-30T04:46:58;37.93;;;19.00;;
6442;SDS011;3254;47.372;8.512;2024-01-30T04:49:26;36.90;;;17.85;;
6442;SDS011;3254;47.372;8.512;2024-01-30T04:51:52;36.20;;;19.53;;
6442;SDS011;3254;47.372;8.512;2024-01-30T04:54:18;36.00;;;20.10;;
6442;SDS011;3254;47.372;8.512;2024-01-30T04:56:44;34.00;;;19.13;;
6442;SDS011;3254;47.372;8.512;2024-01-30T04:59:11;37.83;;;21.20;;
6442;SDS011;3254;47.372;8.512;2024-01-30T05:01:36;38.20;;;19.70;;
6442;SDS011;3254;47.372;8.512;2024-01-30T05:04:02;36.37;;;20.83;;
6442;SDS011;3254;47.372;8.512;2024-01-30T05:06:31;41.08;;;21.13;;
6442;SDS011;3254;47.372;8.512;2024-01-30T05:08:56;33.33;;;19.50;;
6442;SDS011;3254;47.372;8.512;2024-01-30T05:11:23;40.00;;;20.53;;
6442;SDS011;3254;47.372;8.512;2024-01-30T05:13:48;40.00;;;18.30;;
6442;SDS011;3254;47.372;8.512;2024-01-30T05:16:14;28.30;;;16.30;;
6442;SDS011;3254;47.372;8.512;2024-01-30T05:18:39;25.50;;;16.13;;
6442;SDS011;3254;47.372;8.512;2024-01-30T05:21:05;27.93;;;17.17;;
6442;SDS011;3254;47.372;8.512;2024-01-30T05:23:30;27.70;;;16.50;;
6442;SDS011;3254;47.372;8.512;2024-01-30T05:25:55;27.93;;;17.13;;
6442;SDS011;3254;47.372;8.512;2024-01-30T05:28:23;29.40;;;16.60;;
6442;SDS011;3254;47.372;8.512;2024-01-30T05:30:48;28.60;;;16.73;;
6442;SDS011;3254;47.372;8.512;2024-01-30T05:33:13;29.07;;;17.27;;
6442;SDS011;3254;47.372;8.512;2024-01-30T05:35:39;30.70;;;17.37;;
6442;SDS011;3254;47.372;8.512;2024-01-30T05:38:05;25.88;;;16.90;;
6442;SDS011;3254;47.372;8.512;2024-01-30T05:40:31;30.00;;;17.23;;
6442;SDS011;3254;47.372;8.512;2024-01-30T05:42:56;34.37;;;18.67;;
6442;SDS011;3254;47.372;8.512;2024-01-30T05:45:25;30.52;;;17.65;;
6442;SDS011;3254;47.372;8.512;2024-01-30T05:47:51;38.22;;;19.00;;
6442;SDS011;3254;47.372;8.512;2024-01-30T05:50:18;41.05;;;20.13;;
6442;SDS011;3254;47.372;8.512;2024-01-30T05:52:44;42.90;;;20.40;;
6442;SDS011;3254;47.372;8.512;2024-01-30T05:55:10;37.90;;;20.73;;
6442;SDS011;3254;47.372;8.512;2024-01-30T05:57:36;37.15;;;20.30;;
6442;SDS011;3254;47.372;8.512;2024-01-30T06:00:02;37.57;;;18.67;;
6442;SDS011;3254;47.372;8.512;2024-01-30T06:02:28;35.38;;;18.92;;
6442;SDS011;3254;47.372;8.512;2024-01-30T06:04:54;40.53;;;18.97;;
6442;SDS011;3254;47.372;8.512;2024-01-30T06:07:19;31.50;;;18.00;;
6442;SDS011;3254;47.372;8.512;2024-01-30T06:09:45;34.00;;;20.50;;
6442;SDS011;3254;47.372;8.512;2024-01-30T06:12:11;44.13;;;20.83;;
6442;SDS011;3254;47.372;8.512;2024-01-30T06:14:37;31.13;;;18.23;;
6442;SDS011;3254;47.372;8.512;2024-01-30T06:17:02;36.40;;;19.70;;
6442;SDS011;3254;47.372;8.512;2024-01-30T06:19:28;39.80;;;19.17;;
6442;SDS011;3254;47.372;8.512;2024-01-30T06:21:54;37.03;;;20.40;;
6442;SDS011;3254;47.372;8.512;2024-01-30T06:24:19;37.80;;;18.40;;
6442;SDS011;3254;47.372;8.512;2024-01-30T06:26:44;35.13;;;19.50;;
6442;SDS011;3254;47.372;8.512;2024-01-30T06:29:10;37.43;;;18.80;;
6442;SDS011;3254;47.372;8.512;2024-01-30T06:31:41;34.73;;;19.60;;
6442;SDS011;3254;47.372;8.512;2024-01-30T06:34:08;37.45;;;20.27;;
6442;SDS011;3254;47.372;8.512;2024-01-30T06:36:34;36.88;;;20.90;;
6442;SDS011;3254;47.372;8.512;2024-01-30T06:39:00;38.83;;;20.37;;
6442;SDS011;3254;47.372;8.512;2024-01-30T06:41:26;38.42;;;22.13;;
6442;SDS011;3254;47.372;8.512;2024-01-30T06:43:52;39.23;;;20.57;;
6442;SDS011;3254;47.372;8.512;2024-01-30T06:46:17;39.22;;;20.90;;
6442;SDS011;3254;47.372;8.512;2024-01-30T06:48:44;39.30;;;21.90;;
6442;SDS011;3254;47.372;8.512;2024-01-30T06:51:10;36.60;;;19.90;;
6442;SDS011;3254;47.372;8.512;2024-01-30T06:53:36;36.95;;;20.95;;
6442;SDS011;3254;47.372;8.512;2024-01-30T06:56:01;40.93;;;21.77;;
6442;SDS011;3254;47.372;8.512;2024-01-30T06:58:27;36.13;;;20.53;;
6442;SDS011;3254;47.372;8.512;2024-01-30T07:00:52;42.43;;;20.50;;
6442;SDS011;3254;47.372;8.512;2024-01-30T07:03:17;33.83;;;20.03;;
6442;SDS011;3254;47.372;8.512;2024-01-30T07:05:43;35.47;;;19.93;;
6442;SDS011;3254;47.372;8.512;2024-01-30T07:08:08;42.37;;;21.57;;
6442;SDS011;3254;47.372;8.512;2024-01-30T07:10:34;33.70;;;20.40;;
6442;SDS011;3254;47.372;8.512;2024-01-30T07:13:00;35.87;;;21.23;;
6442;SDS011;3254;47.372;8.512;2024-01-30T07:15:25;30.00;;;20.20;;
6442;SDS011;3254;47.372;8.512;2024-01-30T07:17:51;41.67;;;22.57;;
6442;SDS011;3254;47.372;8.512;2024-01-30T07:20:17;38.13;;;20.13;;
6442;SDS011;3254;47.372;8.512;2024-01-30T07:22:45;35.55;;;19.15;;
6442;SDS011;3254;47.372;8.512;2024-01-30T07:25:10;34.73;;;20.33;;
6442;SDS011;3254;47.372;8.512;2024-01-30T07:27:36;39.03;;;19.53;;
6442;SDS011;3254;47.372;8.512;2024-01-30T07:30:01;37.97;;;19.00;;
6442;SDS011;3254;47.372;8.512;2024-01-30T07:32:27;35.10;;;19.87;;
6442;SDS011;3254;47.372;8.512;2024-01-30T07:34:53;33.60;;;19.20;;
6442;SDS011;3254;47.372;8.512;2024-01-30T07:37:19;35.17;;;18.20;;
6442;SDS011;3254;47.372;8.512;2024-01-30T07:39:46;41.58;;;20.70;;
6442;SDS011;3254;47.372;8.512;2024-01-30T07:42:12;39.33;;;19.58;;
6442;SDS011;3254;47.372;8.512;2024-01-30T07:44:37;38.50;;;21.50;;
6442;SDS011;3254;47.372;8.512;2024-01-30T07:47:03;35.33;;;19.90;;
6442;SDS011;3254;47.372;8.512;2024-01-30T07:49:29;32.65;;;19.52;;
6442;SDS011;3254;47.372;8.512;2024-01-30T07:51:55;36.13;;;19.90;;
6442;SDS011;3254;47.372;8.512;2024-01-30T07:54:22;40.88;;;20.55;;
6442;SDS011;3254;47.372;8.512;2024-01-30T07:56:48;36.30;;;20.33;;
6442;SDS011;3254;47.372;8.512;2024-01-30T07:59:14;40.30;;;20.50;;
6442;SDS011;3254;47.372;8.512;2024-01-30T08:01:39;30.90;;;18.87;;
6442;SDS011;3254;47.372;8.512;2024-01-30T08:04:05;31.20;;;20.30;;
6442;SDS011;3254;47.372;8.512;2024-01-30T08:06:31;44.53;;;20.10;;
6442;SDS011;3254;47.372;8.512;2024-01-30T08:08:57;32.03;;;19.23;;
6442;SDS011;3254;47.372;8.512;2024-01-30T08:11:24;36.00;;;20.52;;
6442;SDS011;3254;47.372;8.512;2024-01-30T08:13:51;40.20;;;21.00;;
6442;SDS011;3254;47.372;8.512;2024-01-30T08:16:19;36.10;;;20.42;;
6442;SDS011;3254;47.372;8.512;2024-01-30T08:18:47;33.92;;;20.65;;
6442;SDS011;3254;47.372;8.512;2024-01-30T08:21:12;32.15;;;19.63;;
6442;SDS011;3254;47.372;8.512;2024-01-30T08:23:38;35.50;;;19.90;;
6442;SDS011;3254;47.372;8.512;2024-01-30T08:26:04;28.83;;;19.20;;
6442;SDS011;3254;47.372;8.512;2024-01-30T08:28:29;29.50;;;17.53;;
6442;SDS011;3254;47.372;8.512;2024-01-30T08:30:55;33.93;;;17.40;;
6442;SDS011;3254;47.372;8.512;2024-01-30T08:33:21;27.50;;;18.50;;
6442;SDS011;3254;47.372;8.512;2024-01-30T08:35:46;40.57;;;18.57;;
6442;SDS011;3254;47.372;8.512;2024-01-30T08:38:11;25.97;;;17.53;;
6442;SDS011;3254;47.372;8.512;2024-01-30T08:40:37;23.77;;;16.83;;
6442;SDS011;3254;47.372;8.512;2024-01-30T08:43:03;27.73;;;16.10;;
6442;SDS011;3254;47.372;8.512;2024-01-30T08:45:30;24.58;;;17.00;;
6442;SDS011;3254;47.372;8.512;2024-01-30T08:47:56;21.85;;;16.08;;
6442;SDS011;3254;47.372;8.512;2024-01-30T08:50:21;25.63;;;15.20;;
6442;SDS011;3254;47.372;8.512;2024-01-30T08:52:47;21.13;;;14.07;;
6442;SDS011;3254;47.372;8.512;2024-01-30T08:55:12;21.83;;;14.60;;
6442;SDS011;3254;47.372;8.512;2024-01-30T08:57:38;22.73;;;14.70;;
6442;SDS011;3254;47.372;8.512;2024-01-30T09:00:04;18.97;;;14.30;;
6442;SDS011;3254;47.372;8.512;2024-01-30T09:02:34;20.05;;;13.23;;
6442;SDS011;3254;47.372;8.512;2024-01-30T09:05:00;18.90;;;13.27;;
6442;SDS011;3254;47.372;8.512;2024-01-30T09:07:25;26.53;;;12.93;;
6442;SDS011;3254;47.372;8.512;2024-01-30T09:09:51;12.07;;;10.57;;
6442;SDS011;3254;47.372;8.512;2024-01-30T09:12:17;12.60;;;11.23;;
6442;SDS011;3254;47.372;8.512;2024-01-30T09:14:44;17.48;;;10.60;;
6442;SDS011;3254;47.372;8.512;2024-01-30T09:17:10;14.50;;;10.55;;
6442;SDS011;3254;47.372;8.512;2024-01-30T09:19:37;15.17;;;10.77;;
6442;SDS011;3254;47.372;8.512;2024-01-30T09:22:02;11.90;;;10.05;;
6442;SDS011;3254;47.372;8.512;2024-01-30T09:24:29;13.25;;;10.32;;
6442;SDS011;3254;47.372;8.512;2024-01-30T09:26:54;10.37;;;8.67;;
6442;SDS011;3254;47.372;8.512;2024-01-30T09:29:20;11.13;;;9.73;;
6442;SDS011;3254;47.372;8.512;2024-01-30T09:31:46;17.97;;;9.53;;
6442;SDS011;3254;47.372;8.512;2024-01-30T09:34:12;12.20;;;9.57;;
6442;SDS011;3254;47.372;8.512;2024-01-30T09:36:38;17.10;;;9.33;;
6442;SDS011;3254;47.372;8.512;2024-01-30T09:39:04;18.40;;;9.50;;
6442;SDS011;3254;47.372;8.512;2024-01-30T09:41:32;12.47;;;9.40;;
6442;SDS011;3254;47.372;8.512;2024-01-30T09:43:58;13.37;;;9.13;;
6442;SDS011;3254;47.372;8.512;2024-01-30T09:46:25;19.90;;;10.57;;
6442;SDS011;3254;47.372;8.512;2024-01-30T09:48:55;11.87;;;9.83;;
6442;SDS011;3254;47.372;8.512;2024-01-30T09:51:20;12.37;;;9.87;;
6442;SDS011;3254;47.372;8.512;2024-01-30T09:53:46;12.07;;;10.10;;
6442;SDS011;3254;47.372;8.512;2024-01-30T09:56:12;17.23;;;9.73;;
6442;SDS011;3254;47.372;8.512;2024-01-30T09:58:37;13.40;;;9.00;;
6442;SDS011;3254;47.372;8.512;2024-01-30T10:01:04;17.37;;;9.13;;
6442;SDS011;3254;47.372;8.512;2024-01-30T10:03:30;12.67;;;10.00;;
6442;SDS011;3254;47.372;8.512;2024-01-30T10:05:55;16.30;;;9.47;;
6442;SDS011;3254;47.372;8.512;2024-01-30T10:08:21;13.50;;;9.70;;
6442;SDS011;3254;47.372;8.512;2024-01-30T10:10:46;12.70;;;10.37;;
6442;SDS011;3254;47.372;8.512;2024-01-30T10:13:12;14.03;;;10.60;;
6442;SDS011;3254;47.372;8.512;2024-01-30T10:15:38;11.50;;;10.30;;
6442;SDS011;3254;47.372;8.512;2024-01-30T10:18:04;17.83;;;10.30;;
6442;SDS011;3254;47.372;8.512;2024-01-30T10:20:31;12.43;;;10.90;;
6442;SDS011;3254;47.372;8.512;2024-01-30T10:22:57;13.30;;;9.57;;
6442;SDS011;3254;47.372;8.512;2024-01-30T10:25:23;17.60;;;10.03;;
6442;SDS011;3254;47.372;8.512;2024-01-30T10:27:52;17.53;;;10.83;;
6442;SDS011;3254;47.372;8.512;2024-01-30T10:30:23;17.40;;;9.93;;
6442;SDS011;3254;47.372;8.512;2024-01-30T10:32:49;18.80;;;10.10;;
6442;SDS011;3254;47.372;8.512;2024-01-30T10:35:15;13.37;;;9.60;;
6442;SDS011;3254;47.372;8.512;2024-01-30T10:37:43;12.07;;;8.80;;
6442;SDS011;3254;47.372;8.512;2024-01-30T10:40:08;10.50;;;8.87;;
6442;SDS011;3254;47.372;8.512;2024-01-30T10:42:35;13.70;;;9.60;;
6442;SDS011;3254;47.372;8.512;2024-01-30T10:45:09;11.23;;;9.60;;
6442;SDS011;3254;47.372;8.512;2024-01-30T10:47:59;12.97;;;10.03;;
6442;SDS011;3254;47.372;8.512;2024-01-30T10:50:25;13.93;;;9.17;;
6442;SDS011;3254;47.372;8.512;2024-01-30T10:52:51;21.87;;;10.27;;
6442;SDS011;3254;47.372;8.512;2024-01-30T10:55:17;17.63;;;9.03;;
6442;SDS011;3254;47.372;8.512;2024-01-30T10:57:43;11.43;;;9.90;;
6442;SDS011;3254;47.372;8.512;2024-01-30T11:00:09;16.40;;;10.03;;
6442;SDS011;3254;47.372;8.512;2024-01-30T11:02:36;11.60;;;9.43;;
6442;SDS011;3254;47.372;8.512;2024-01-30T11:05:04;9.80;;;8.80;;
6442;SDS011;3254;47.372;8.512;2024-01-30T11:07:29;13.53;;;9.87;;
6442;SDS011;3254;47.372;8.512;2024-01-30T11:12:23;12.33;;;8.90;;
6442;SDS011;3254;47.372;8.512;2024-01-30T11:14:50;12.77;;;8.73;;
6442;SDS011;3254;47.372;8.512;2024-01-30T11:17:54;14.03;;;9.83;;
6442;SDS011;3254;47.372;8.512;2024-01-30T11:20:21;19.37;;;9.53;;
6442;SDS011;3254;47.372;8.512;2024-01-30T11:22:49;10.90;;;8.60;;
6442;SDS011;3254;47.372;8.512;2024-01-30T11:25:16;10.73;;;9.57;;
6442;SDS011;3254;47.372;8.512;2024-01-30T11:27:43;11.37;;;9.00;;
6442;SDS011;3254;47.372;8.512;2024-01-30T11:30:09;14.60;;;9.47;;
6442;SDS011;3254;47.372;8.512;2024-01-30T11:32:35;10.10;;;8.57;;
6442;SDS011;3254;47.372;8.512;2024-01-30T11:35:02;9.10;;;8.20;;
6442;SDS011;3254;47.372;8.512;2024-01-30T11:37:30;14.00;;;9.87;;
6442;SDS011;3254;47.372;8.512;2024-01-30T11:39:56;11.50;;;9.87;;
6442;SDS011;3254;47.372;8.512;2024-01-30T11:42:22;12.67;;;9.90;;
6442;SDS011;3254;47.372;8.512;2024-01-30T11:44:49;13.73;;;8.63;;
6442;SDS011;3254;47.372;8.512;2024-01-30T11:47:16;10.93;;;9.20;;
6442;SDS011;3254;47.372;8.512;2024-01-30T11:49:43;18.50;;;8.70;;
6442;SDS011;3254;47.372;8.512;2024-01-30T11:52:08;10.07;;;8.73;;
6442;SDS011;3254;47.372;8.512;2024-01-30T11:54:34;13.13;;;8.13;;
6442;SDS011;3254;47.372;8.512;2024-01-30T11:57:01;10.10;;;9.00;;
6442;SDS011;3254;47.372;8.512;2024-01-30T11:59:26;9.27;;;8.33;;
6442;SDS011;3254;47.372;8.512;2024-01-30T12:01:52;10.40;;;8.27;;
6442;SDS011;3254;47.372;8.512;2024-01-30T12:04:17;13.73;;;8.20;;
6442;SDS011;3254;47.372;8.512;2024-01-30T12:06:43;10.87;;;7.37;;
6442;SDS011;3254;47.372;8.512;2024-01-30T12:09:08;11.87;;;7.77;;
6442;SDS011;3254;47.372;8.512;2024-01-30T12:11:44;13.63;;;8.50;;
6442;SDS011;3254;47.372;8.512;2024-01-30T12:14:11;9.87;;;8.83;;
6442;SDS011;3254;47.372;8.512;2024-01-30T12:16:37;11.23;;;8.10;;
6442;SDS011;3254;47.372;8.512;2024-01-30T12:19:02;9.17;;;8.37;;
6442;SDS011;3254;47.372;8.512;2024-01-30T12:21:28;18.33;;;7.73;;
6442;SDS011;3254;47.372;8.512;2024-01-30T12:23:54;13.50;;;8.30;;
6442;SDS011;3254;47.372;8.512;2024-01-30T12:26:20;13.53;;;8.20;;
6442;SDS011;3254;47.372;8.512;2024-01-30T12:28:49;11.97;;;7.67;;
6442;SDS011;3254;47.372;8.512;2024-01-30T12:31:17;8.73;;;7.90;;
6442;SDS011;3254;47.372;8.512;2024-01-30T12:33:42;15.37;;;8.30;;
6442;SDS011;3254;47.372;8.512;2024-01-30T12:36:08;10.83;;;8.50;;
6442;SDS011;3254;47.372;8.512;2024-01-30T12:38:33;12.80;;;7.90;;
6442;SDS011;3254;47.372;8.512;2024-01-30T12:40:59;12.40;;;7.60;;
6442;SDS011;3254;47.372;8.512;2024-01-30T12:43:25;16.00;;;7.63;;
6442;SDS011;3254;47.372;8.512;2024-01-30T12:45:52;19.23;;;8.30;;
6442;SDS011;3254;47.372;8.512;2024-01-30T12:48:17;9.07;;;7.27;;
6442;SDS011;3254;47.372;8.512;2024-01-30T12:50:43;11.83;;;7.70;;
6442;SDS011;3254;47.372;8.512;2024-01-30T12:53:08;8.73;;;7.53;;
6442;SDS011;3254;47.372;8.512;2024-01-30T12:55:34;11.73;;;7.13;;
6442;SDS011;3254;47.372;8.512;2024-01-30T12:58:00;7.43;;;6.83;;
6442;SDS011;3254;47.372;8.512;2024-01-30T13:00:25;11.47;;;6.93;;
6442;SDS011;3254;47.372;8.512;2024-01-30T13:02:50;10.67;;;7.50;;
6442;SDS011;3254;47.372;8.512;2024-01-30T13:05:16;11.47;;;7.77;;
6442;SDS011;3254;47.372;8.512;2024-01-30T13:07:41;8.70;;;7.17;;
6442;SDS011;3254;47.372;8.512;2024-01-30T13:10:07;8.93;;;8.00;;
6442;SDS011;3254;47.372;8.512;2024-01-30T13:12:32;18.90;;;8.30;;
6442;SDS011;3254;47.372;8.512;2024-01-30T13:14:58;12.30;;;8.00;;
6442;SDS011;3254;47.372;8.512;2024-01-30T13:17:26;8.33;;;7.50;;
6442;SDS011;3254;47.372;8.512;2024-01-30T13:19:51;13.33;;;7.97;;
6442;SDS011;3254;47.372;8.512;2024-01-30T13:22:17;17.77;;;9.47;;
6442;SDS011;3254;47.372;8.512;2024-01-30T13:24:42;13.50;;;9.03;;
6442;SDS011;3254;47.372;8.512;2024-01-30T13:27:08;10.30;;;9.20;;
6442;SDS011;3254;47.372;8.512;2024-01-30T13:29:33;11.03;;;8.80;;
6442;SDS011;3254;47.372;8.512;2024-01-30T13:31:59;11.20;;;9.00;;
6442;SDS011;3254;47.372;8.512;2024-01-30T13:34:24;10.83;;;8.13;;
6442;SDS011;3254;47.372;8.512;2024-01-30T13:36:50;17.17;;;8.93;;
6442;SDS011;3254;47.372;8.512;2024-01-30T13:39:15;14.63;;;9.17;;
6442;SDS011;3254;47.372;8.512;2024-01-30T13:41:43;13.13;;;7.90;;
6442;SDS011;3254;47.372;8.512;2024-01-30T13:44:09;14.30;;;7.77;;
6442;SDS011;3254;47.372;8.512;2024-01-30T13:46:34;11.63;;;8.90;;
6442;SDS011;3254;47.372;8.512;2024-01-30T13:49:00;13.83;;;8.63;;
6442;SDS011;3254;47.372;8.512;2024-01-30T13:51:26;10.60;;;7.80;;
6442;SDS011;3254;47.372;8.512;2024-01-30T13:53:52;9.10;;;7.70;;
6442;SDS011;3254;47.372;8.512;2024-01-30T13:56:17;10.00;;;7.90;;
6442;SDS011;3254;47.372;8.512;2024-01-30T13:58:43;10.07;;;8.20;;
6442;SDS011;3254;47.372;8.512;2024-01-30T14:01:08;11.23;;;8.80;;
6442;SDS011;3254;47.372;8.512;2024-01-30T14:03:35;12.07;;;8.50;;
6442;SDS011;3254;47.372;8.512;2024-01-30T14:06:00;8.20;;;7.50;;
6442;SDS011;3254;47.372;8.512;2024-01-30T14:08:25;8.17;;;6.40;;
6442;SDS011;3254;47.372;8.512;2024-01-30T14:10:53;16.40;;;10.77;;
6442;SDS011;3254;47.372;8.512;2024-01-30T14:13:19;12.90;;;9.03;;
6442;SDS011;3254;47.372;8.512;2024-01-30T14:15:44;13.90;;;8.90;;
6442;SDS011;3254;47.372;8.512;2024-01-30T14:18:10;10.70;;;7.80;;
6442;SDS011;3254;47.372;8.512;2024-01-30T14:20:36;12.70;;;8.00;;
6442;SDS011;3254;47.372;8.512;2024-01-30T14:23:01;12.37;;;8.43;;
6442;SDS011;3254;47.372;8.512;2024-01-30T14:25:27;9.27;;;7.67;;
6442;SDS011;3254;47.372;8.512;2024-01-30T14:27:52;8.80;;;7.87;;
6442;SDS011;3254;47.372;8.512;2024-01-30T14:30:18;10.80;;;8.60;;
6442;SDS011;3254;47.372;8.512;2024-01-30T14:32:43;11.63;;;8.30;;
6442;SDS011;3254;47.372;8.512;2024-01-30T14:35:10;9.83;;;7.70;;
6442;SDS011;3254;47.372;8.512;2024-01-30T14:37:35;8.60;;;7.77;;
6442;SDS011;3254;47.372;8.512;2024-01-30T14:40:00;9.40;;;7.37;;
6442;SDS011;3254;47.372;8.512;2024-01-30T14:42:26;8.63;;;7.83;;
6442;SDS011;3254;47.372;8.512;2024-01-30T14:44:52;15.17;;;6.83;;
6442;SDS011;3254;47.372;8.512;2024-01-30T14:47:17;14.17;;;7.37;;
6442;SDS011;3254;47.372;8.512;2024-01-30T14:49:43;8.30;;;7.00;;